Thursday, January 18, 2018, 8:54 PM EST
Back to Local

KPSM, Pease Air Force Base / Portsmouth

Location: Portsmouth, NH, United States Lat: 43.083
Local Time: 8:54 PM EST ( 1:54 GMT) Lon: -70.817
Time Zone: US/Eastern Elev: 101 ft

Show me the last for .
Show Decoded

2018-01-18 19:56 METAR KPSM 190056Z 28003KT 10SM BKN035 M03/M08 A2989 RMK AO2A SLP125 T10291082 =
2018-01-18 18:56 METAR KPSM 182356Z 29005KT 10SM OVC037 M03/M08 A2988 RMK AO2A SLP122 4/006
                 T10261083 11012 21040 52015 =
2018-01-18 17:56 METAR KPSM 182256Z 00000KT 10SM BKN038 M02/M08 A2986 RMK AO2A SLP115 T10241079 =
2018-01-18 16:56 METAR KPSM 182156Z 00000KT 10SM SCT041 M03/M09 A2984 RMK AO2A SLP109 T10311086 =
2018-01-18 15:56 METAR KPSM 182056Z 27003KT 10SM FEW020 M01/M08 A2984 RMK AO2A SLP108 T10141084
                 55009 =
2018-01-18 14:56 METAR KPSM 181956Z 32009KT 10SM FEW020 M02/M08 A2982 RMK AO2A SLP102 T10181083 =
2018-01-18 13:56 METAR KPSM 181856Z 31009KT 10SM FEW020 M02/M08 A2983 RMK AO2A SLP105 T10191084 =
2018-01-18 12:56 METAR KPSM 181756Z 28007KT 10SM FEW030 M02/M08 A2986 RMK AO2A SLP115 4/007
                 T10211084 11021 21091 57024 =
2018-01-18 11:56 METAR KPSM 181656Z 32009KT 10SM FEW030 M03/M09 A2989 RMK AO2A SLP125 T10291088 =
2018-01-18 10:56 METAR KPSM 181556Z 29007KT 10SM CLR M04/M09 A2991 RMK AO2A SLP132 T10401090 =
2018-01-18 09:56 METAR KPSM 181456Z 29008KT 10SM CLR M05/M10 A2994 RMK AO2A SLP142 T10551101
                 50003 =
2018-01-18 08:56 METAR KPSM 181356Z 28005KT 10SM FEW035 M07/M10 A2994 RMK AO2A SLP142 T10671104 =
2018-01-18 07:56 METAR KPSM 181256Z 23003KT 10SM FEW035 M08/M10 A2995 RMK AO2A SLP146 T10841101 =
2018-01-18 06:56 METAR KPSM 181156Z 27005KT 10SM FEW035 M08/M10 A2993 RMK AO2A SLP139 70027 4/007
                 T10771097 11020 21077 56010 =
2018-01-18 05:56 METAR KPSM 181056Z 27007KT 10SM FEW035 M07/M09 A2993 RMK AO2A SLP139 T10731091 =
2018-01-18 04:56 METAR KPSM 180956Z 27004KT 10SM FEW035 M07/M08 A2995 RMK AO2A SLP146 T10691083 =
2018-01-18 03:56 METAR KPSM 180856Z 26005KT 10SM FEW035 M06/M07 A2996 RMK AO2A SLP149 T10611075
                 55015 =
2018-01-18 02:56 METAR KPSM 180756Z 26003KT 10SM FEW035 M05/M07 A2997 RMK AO2A SLP152 T10481066 =
2018-01-18 01:56 METAR KPSM 180656Z 29007KT 10SM FEW035 M03/M05 A2997 RMK AO2A SLP152 T10331052 =
2018-01-18 00:56 METAR KPSM 180556Z 28004KT 10SM FEW024 OVC038 M02/M03 A3000 RMK AO2A SLP162
                 60001 4/007 T10191033 11017 21021 57020 =
2018-01-17 23:56 METAR KPSM 180456Z 27003KT 7SM SCT024 OVC037 M02/M03 A3003 RMK AO2A SLP173
                 T10211031 410081021 =
2018-01-17 23:11 METAR KPSM 180411Z 25003KT 7SM SCT024 OVC033 M02/M03 A3004 RMK AO2A =
2018-01-17 22:56 METAR KPSM 180356Z 00000KT 7SM BKN023 OVC035 M02/M03 A3004 RMK AO2A SLP176
                 T10191030 =
2018-01-17 21:56 METAR KPSM 180256Z 30003KT 7SM BKN026 OVC035 M02/M03 A3006 RMK AO2A SNE33 SLP183
                 P0000 60001 T10181032 55005 =
2018-01-17 21:33 METAR KPSM 180233Z 30005KT 7SM BKN026 OVC035 M02/M03 A3005 RMK AO2A SNE33 =
2018-01-17 20:56 METAR KPSM 180156Z 29005KT 6SM -SN FEW008 SCT028 OVC040 M02/M03 A3005 RMK AO2A
                 SLP179 P0000 T10191030 =

Support USWX by starting your Amazon purchase here.